sensor_id;sensor_type;location;lat;lon;timestamp;P1;P2;P0
60816;PMS5003;51921;51.518;-3.188;2022-09-09T00:00:21;5;5;
60816;PMS5003;51921;51.518;-3.188;2022-09-09T00:02:50;4;4;
60816;PMS5003;51921;51.518;-3.188;2022-09-09T00:05:14;6;6;
60816;PMS5003;51921;51.518;-3.188;2022-09-09T00:07:40;6;6;
60816;PMS5003;51921;51.518;-3.188;2022-09-09T00:10:05;7;7;
60816;PMS5003;51921;51.518;-3.188;2022-09-09T00:12:33;6;6;
60816;PMS5003;51921;51.518;-3.188;2022-09-09T00:14:54;5;5;
60816;PMS5003;51921;51.518;-3.188;2022-09-09T00:17:25;6;6;
60816;PMS5003;51921;51.518;-3.188;2022-09-09T00:19:46;6;6;
60816;PMS5003;51921;51.518;-3.188;2022-09-09T00:22:14;7;7;
60816;PMS5003;51921;51.518;-3.188;2022-09-09T00:24:38;6;6;
60816;PMS5003;51921;51.518;-3.188;2022-09-09T00:27:03;6;6;
60816;PMS5003;51921;51.518;-3.188;2022-09-09T00:29:28;6;6;
60816;PMS5003;51921;51.518;-3.188;2022-09-09T00:31:52;6;6;
60816;PMS5003;51921;51.518;-3.188;2022-09-09T00:34:18;5;5;
60816;PMS5003;51921;51.518;-3.188;2022-09-09T00:36:43;5;4;
60816;PMS5003;51921;51.518;-3.188;2022-09-09T00:39:09;4;4;
60816;PMS5003;51921;51.518;-3.188;2022-09-09T00:41:36;5;5;
60816;PMS5003;51921;51.518;-3.188;2022-09-09T00:44:00;4;3;
60816;PMS5003;51921;51.518;-3.188;2022-09-09T00:46:34;5;4;
60816;PMS5003;51921;51.518;-3.188;2022-09-09T00:48:52;4;4;
60816;PMS5003;51921;51.518;-3.188;2022-09-09T00:51:15;3;3;
60816;PMS5003;51921;51.518;-3.188;2022-09-09T00:53:53;4;4;
60816;PMS5003;51921;51.518;-3.188;2022-09-09T00:56:09;2;2;
60816;PMS5003;51921;51.518;-3.188;2022-09-09T00:58:31;2;2;
60816;PMS5003;51921;51.518;-3.188;2022-09-09T01:00:57;3;3;
60816;PMS5003;51921;51.518;-3.188;2022-09-09T01:03:25;2;2;
60816;PMS5003;51921;51.518;-3.188;2022-09-09T01:05:48;3;3;
60816;PMS5003;51921;51.518;-3.188;2022-09-09T01:08:16;2;2;
60816;PMS5003;51921;51.518;-3.188;2022-09-09T01:10:41;3;3;
60816;PMS5003;51921;51.518;-3.188;2022-09-09T01:13:04;2;2;
60816;PMS5003;51921;51.518;-3.188;2022-09-09T01:15:29;2;1;
60816;PMS5003;51921;51.518;-3.188;2022-09-09T01:17:57;5;4;
60816;PMS5003;51921;51.518;-3.188;2022-09-09T01:20:21;4;4;
60816;PMS5003;51921;51.518;-3.188;2022-09-09T01:22:49;3;3;
60816;PMS5003;51921;51.518;-3.188;2022-09-09T01:25:18;2;2;
60816;PMS5003;51921;51.518;-3.188;2022-09-09T01:27:36;2;2;
60816;PMS5003;51921;51.518;-3.188;2022-09-09T01:30:04;3;3;
60816;PMS5003;51921;51.518;-3.188;2022-09-09T01:34:52;3;3;
60816;PMS5003;51921;51.518;-3.188;2022-09-09T01:37:18;2;2;
60816;PMS5003;51921;51.518;-3.188;2022-09-09T01:39:43;3;3;
60816;PMS5003;51921;51.518;-3.188;2022-09-09T01:42:09;1;1;
60816;PMS5003;51921;51.518;-3.188;2022-09-09T01:44:34;3;3;
60816;PMS5003;51921;51.518;-3.188;2022-09-09T01:46:59;2;2;
60816;PMS5003;51921;51.518;-3.188;2022-09-09T01:49:25;3;3;
60816;PMS5003;51921;51.518;-3.188;2022-09-09T01:51:51;4;4;
60816;PMS5003;51921;51.518;-3.188;2022-09-09T01:54:15;3;3;
60816;PMS5003;51921;51.518;-3.188;2022-09-09T01:56:44;3;2;
60816;PMS5003;51921;51.518;-3.188;2022-09-09T01:59:10;4;4;
60816;PMS5003;51921;51.518;-3.188;2022-09-09T02:01:35;4;4;
60816;PMS5003;51921;51.518;-3.188;2022-09-09T02:03:57;3;2;
60816;PMS5003;51921;51.518;-3.188;2022-09-09T02:06:26;3;3;
60816;PMS5003;51921;51.518;-3.188;2022-09-09T02:08:48;3;3;
60816;PMS5003;51921;51.518;-3.188;2022-09-09T02:11:14;3;3;
60816;PMS5003;51921;51.518;-3.188;2022-09-09T02:13:39;4;4;
60816;PMS5003;51921;51.518;-3.188;2022-09-09T02:16:05;4;4;
60816;PMS5003;51921;51.518;-3.188;2022-09-09T02:18:31;3;3;
60816;PMS5003;51921;51.518;-3.188;2022-09-09T02:20:55;2;2;
60816;PMS5003;51921;51.518;-3.188;2022-09-09T02:23:20;2;2;
60816;PMS5003;51921;51.518;-3.188;2022-09-09T02:25:46;1;1;
60816;PMS5003;51921;51.518;-3.188;2022-09-09T02:28:11;1;1;
60816;PMS5003;51921;51.518;-3.188;2022-09-09T02:30:36;2;2;
60816;PMS5003;51921;51.518;-3.188;2022-09-09T02:33:03;4;2;
60816;PMS5003;51921;51.518;-3.188;2022-09-09T02:35:27;2;2;
60816;PMS5003;51921;51.518;-3.188;2022-09-09T02:37:53;3;3;
60816;PMS5003;51921;51.518;-3.188;2022-09-09T02:40:18;5;4;
60816;PMS5003;51921;51.518;-3.188;2022-09-09T02:42:44;3;3;
60816;PMS5003;51921;51.518;-3.188;2022-09-09T02:45:09;3;2;
60816;PMS5003;51921;51.518;-3.188;2022-09-09T02:47:35;3;3;
60816;PMS5003;51921;51.518;-3.188;2022-09-09T02:50:02;4;3;
60816;PMS5003;51921;51.518;-3.188;2022-09-09T02:52:26;3;3;
60816;PMS5003;51921;51.518;-3.188;2022-09-09T02:54:50;3;3;
60816;PMS5003;51921;51.518;-3.188;2022-09-09T02:57:17;1;1;
60816;PMS5003;51921;51.518;-3.188;2022-09-09T02:59:41;4;3;
60816;PMS5003;51921;51.518;-3.188;2022-09-09T03:02:06;2;2;
60816;PMS5003;51921;51.518;-3.188;2022-09-09T03:04:32;4;3;
60816;PMS5003;51921;51.518;-3.188;2022-09-09T03:06:57;2;2;
60816;PMS5003;51921;51.518;-3.188;2022-09-09T03:09:23;4;4;
60816;PMS5003;51921;51.518;-3.188;2022-09-09T03:11:48;2;2;
60816;PMS5003;51921;51.518;-3.188;2022-09-09T03:14:13;2;2;
60816;PMS5003;51921;51.518;-3.188;2022-09-09T03:16:39;4;3;
60816;PMS5003;51921;51.518;-3.188;2022-09-09T03:19:04;3;3;
60816;PMS5003;51921;51.518;-3.188;2022-09-09T03:21:30;3;3;
60816;PMS5003;51921;51.518;-3.188;2022-09-09T03:23:56;2;2;
60816;PMS5003;51921;51.518;-3.188;2022-09-09T03:26:21;3;3;
60816;PMS5003;51921;51.518;-3.188;2022-09-09T03:28:46;2;2;
60816;PMS5003;51921;51.518;-3.188;2022-09-09T03:31:11;2;2;
60816;PMS5003;51921;51.518;-3.188;2022-09-09T03:33:37;3;2;
60816;PMS5003;51921;51.518;-3.188;2022-09-09T03:36:03;2;2;
60816;PMS5003;51921;51.518;-3.188;2022-09-09T03:38:28;2;2;
60816;PMS5003;51921;51.518;-3.188;2022-09-09T03:40:55;2;2;
60816;PMS5003;51921;51.518;-3.188;2022-09-09T03:43:19;3;3;
60816;PMS5003;51921;51.518;-3.188;2022-09-09T03:45:45;2;2;
60816;PMS5003;51921;51.518;-3.188;2022-09-09T03:48:10;3;3;
60816;PMS5003;51921;51.518;-3.188;2022-09-09T03:50:35;1;1;
60816;PMS5003;51921;51.518;-3.188;2022-09-09T03:53:01;2;2;
60816;PMS5003;51921;51.518;-3.188;2022-09-09T03:55:26;2;2;
60816;PMS5003;51921;51.518;-3.188;2022-09-09T03:57:51;2;2;
60816;PMS5003;51921;51.518;-3.188;2022-09-09T04:00:17;2;1;
60816;PMS5003;51921;51.518;-3.188;2022-09-09T04:02:42;0;0;
60816;PMS5003;51921;51.518;-3.188;2022-09-09T04:05:08;2;2;
60816;PMS5003;51921;51.518;-3.188;2022-09-09T04:07:33;3;2;
60816;PMS5003;51921;51.518;-3.188;2022-09-09T04:09:59;2;2;
60816;PMS5003;51921;51.518;-3.188;2022-09-09T04:12:24;3;2;
60816;PMS5003;51921;51.518;-3.188;2022-09-09T04:14:50;3;3;
60816;PMS5003;51921;51.518;-3.188;2022-09-09T04:17:15;2;2;
60816;PMS5003;51921;51.518;-3.188;2022-09-09T04:19:41;3;3;
60816;PMS5003;51921;51.518;-3.188;2022-09-09T04:22:06;1;1;
60816;PMS5003;51921;51.518;-3.188;2022-09-09T04:24:31;4;4;
60816;PMS5003;51921;51.518;-3.188;2022-09-09T04:26:57;3;2;
60816;PMS5003;51921;51.518;-3.188;2022-09-09T04:29:22;2;2;
60816;PMS5003;51921;51.518;-3.188;2022-09-09T04:31:48;3;3;
60816;PMS5003;51921;51.518;-3.188;2022-09-09T04:34:13;4;3;
60816;PMS5003;51921;51.518;-3.188;2022-09-09T04:36:39;3;3;
60816;PMS5003;51921;51.518;-3.188;2022-09-09T04:39:04;4;4;
60816;PMS5003;51921;51.518;-3.188;2022-09-09T04:41:30;4;4;
60816;PMS5003;51921;51.518;-3.188;2022-09-09T04:43:55;2;2;
60816;PMS5003;51921;51.518;-3.188;2022-09-09T04:46:20;4;4;
60816;PMS5003;51921;51.518;-3.188;2022-09-09T04:48:46;5;5;
60816;PMS5003;51921;51.518;-3.188;2022-09-09T04:51:13;5;5;
60816;PMS5003;51921;51.518;-3.188;2022-09-09T04:53:37;5;5;
60816;PMS5003;51921;51.518;-3.188;2022-09-09T04:56:03;5;5;
60816;PMS5003;51921;51.518;-3.188;2022-09-09T04:58:28;5;5;
60816;PMS5003;51921;51.518;-3.188;2022-09-09T05:00:53;7;5;
60816;PMS5003;51921;51.518;-3.188;2022-09-09T05:03:18;8;7;
60816;PMS5003;51921;51.518;-3.188;2022-09-09T05:05:44;5;5;
60816;PMS5003;51921;51.518;-3.188;2022-09-09T05:08:10;5;4;
60816;PMS5003;51921;51.518;-3.188;2022-09-09T05:10:36;5;5;
60816;PMS5003;51921;51.518;-3.188;2022-09-09T05:13:00;6;6;
60816;PMS5003;51921;51.518;-3.188;2022-09-09T05:15:26;6;5;
60816;PMS5003;51921;51.518;-3.188;2022-09-09T05:17:51;7;6;
60816;PMS5003;51921;51.518;-3.188;2022-09-09T05:20:17;7;7;
60816;PMS5003;51921;51.518;-3.188;2022-09-09T05:22:42;6;6;
60816;PMS5003;51921;51.518;-3.188;2022-09-09T05:25:08;6;6;
60816;PMS5003;51921;51.518;-3.188;2022-09-09T05:27:33;6;6;
60816;PMS5003;51921;51.518;-3.188;2022-09-09T05:29:59;6;6;
60816;PMS5003;51921;51.518;-3.188;2022-09-09T05:32:24;6;6;
60816;PMS5003;51921;51.518;-3.188;2022-09-09T05:34:49;5;5;
60816;PMS5003;51921;51.518;-3.188;2022-09-09T05:37:15;7;5;
60816;PMS5003;51921;51.518;-3.188;2022-09-09T05:39:40;6;5;
60816;PMS5003;51921;51.518;-3.188;2022-09-09T05:42:06;5;5;
60816;PMS5003;51921;51.518;-3.188;2022-09-09T05:44:31;7;6;
60816;PMS5003;51921;51.518;-3.188;2022-09-09T05:46:56;5;5;
60816;PMS5003;51921;51.518;-3.188;2022-09-09T05:49:22;5;4;
60816;PMS5003;51921;51.518;-3.188;2022-09-09T05:51:47;6;6;
60816;PMS5003;51921;51.518;-3.188;2022-09-09T05:54:13;4;4;
60816;PMS5003;51921;51.518;-3.188;2022-09-09T05:56:38;6;6;
60816;PMS5003;51921;51.518;-3.188;2022-09-09T05:59:04;6;6;
60816;PMS5003;51921;51.518;-3.188;2022-09-09T06:01:30;5;5;
60816;PMS5003;51921;51.518;-3.188;2022-09-09T06:03:55;5;5;
60816;PMS5003;51921;51.518;-3.188;2022-09-09T06:06:21;4;4;
60816;PMS5003;51921;51.518;-3.188;2022-09-09T06:08:47;4;4;
60816;PMS5003;51921;51.518;-3.188;2022-09-09T06:11:12;8;7;
60816;PMS5003;51921;51.518;-3.188;2022-09-09T06:13:36;4;4;
60816;PMS5003;51921;51.518;-3.188;2022-09-09T06:16:02;6;6;
60816;PMS5003;51921;51.518;-3.188;2022-09-09T06:18:27;4;4;
60816;PMS5003;51921;51.518;-3.188;2022-09-09T06:20:53;4;4;
60816;PMS5003;51921;51.518;-3.188;2022-09-09T06:23:18;5;5;
60816;PMS5003;51921;51.518;-3.188;2022-09-09T06:25:44;4;4;
60816;PMS5003;51921;51.518;-3.188;2022-09-09T06:28:09;4;4;
60816;PMS5003;51921;51.518;-3.188;2022-09-09T06:30:34;5;5;
60816;PMS5003;51921;51.518;-3.188;2022-09-09T06:33:00;4;4;
60816;PMS5003;51921;51.518;-3.188;2022-09-09T06:35:25;4;4;
60816;PMS5003;51921;51.518;-3.188;2022-09-09T06:37:51;6;5;
60816;PMS5003;51921;51.518;-3.188;2022-09-09T06:40:16;4;4;
60816;PMS5003;51921;51.518;-3.188;2022-09-09T06:42:42;5;5;
60816;PMS5003;51921;51.518;-3.188;2022-09-09T06:45:08;6;5;
60816;PMS5003;51921;51.518;-3.188;2022-09-09T06:47:32;5;5;
60816;PMS5003;51921;51.518;-3.188;2022-09-09T06:49:58;4;4;
60816;PMS5003;51921;51.518;-3.188;2022-09-09T06:52:23;6;6;
60816;PMS5003;51921;51.518;-3.188;2022-09-09T06:54:49;5;4;
60816;PMS5003;51921;51.518;-3.188;2022-09-09T06:57:14;3;3;
60816;PMS5003;51921;51.518;-3.188;2022-09-09T06:59:39;4;4;
60816;PMS5003;51921;51.518;-3.188;2022-09-09T07:02:05;5;4;
60816;PMS5003;51921;51.518;-3.188;2022-09-09T07:04:30;5;5;
60816;PMS5003;51921;51.518;-3.188;2022-09-09T07:06:56;2;2;
60816;PMS5003;51921;51.518;-3.188;2022-09-09T07:09:21;4;3;
60816;PMS5003;51921;51.518;-3.188;2022-09-09T07:11:47;5;4;
60816;PMS5003;51921;51.518;-3.188;2022-09-09T07:14:12;3;3;
60816;PMS5003;51921;51.518;-3.188;2022-09-09T07:16:37;4;3;
60816;PMS5003;51921;51.518;-3.188;2022-09-09T07:19:02;3;3;
60816;PMS5003;51921;51.518;-3.188;2022-09-09T07:21:28;4;4;
60816;PMS5003;51921;51.518;-3.188;2022-09-09T07:23:53;3;3;
60816;PMS5003;51921;51.518;-3.188;2022-09-09T07:26:19;3;3;
60816;PMS5003;51921;51.518;-3.188;2022-09-09T07:28:44;3;3;
60816;PMS5003;51921;51.518;-3.188;2022-09-09T07:31:12;3;3;
60816;PMS5003;51921;51.518;-3.188;2022-09-09T07:33:35;5;4;
60816;PMS5003;51921;51.518;-3.188;2022-09-09T07:36:03;4;4;
60816;PMS5003;51921;51.518;-3.188;2022-09-09T07:38:26;3;3;
60816;PMS5003;51921;51.518;-3.188;2022-09-09T07:40:51;3;3;
60816;PMS5003;51921;51.518;-3.188;2022-09-09T07:43:17;3;3;
60816;PMS5003;51921;51.518;-3.188;2022-09-09T07:45:42;2;2;
60816;PMS5003;51921;51.518;-3.188;2022-09-09T07:48:08;2;2;
60816;PMS5003;51921;51.518;-3.188;2022-09-09T07:50:33;2;2;
60816;PMS5003;51921;51.518;-3.188;2022-09-09T07:52:58;2;2;
60816;PMS5003;51921;51.518;-3.188;2022-09-09T07:55:23;2;2;
60816;PMS5003;51921;51.518;-3.188;2022-09-09T07:57:49;2;2;
60816;PMS5003;51921;51.518;-3.188;2022-09-09T08:00:14;4;3;
60816;PMS5003;51921;51.518;-3.188;2022-09-09T08:02:39;5;3;
60816;PMS5003;51921;51.518;-3.188;2022-09-09T08:05:05;3;3;
60816;PMS5003;51921;51.518;-3.188;2022-09-09T08:07:30;1;1;
60816;PMS5003;51921;51.518;-3.188;2022-09-09T08:09:56;2;1;
60816;PMS5003;51921;51.518;-3.188;2022-09-09T08:12:21;2;2;
60816;PMS5003;51921;51.518;-3.188;2022-09-09T08:14:46;3;2;
60816;PMS5003;51921;51.518;-3.188;2022-09-09T08:17:12;2;2;
60816;PMS5003;51921;51.518;-3.188;2022-09-09T08:19:37;1;1;
60816;PMS5003;51921;51.518;-3.188;2022-09-09T08:22:03;3;3;
60816;PMS5003;51921;51.518;-3.188;2022-09-09T08:24:28;2;2;
60816;PMS5003;51921;51.518;-3.188;2022-09-09T08:26:54;3;3;
60816;PMS5003;51921;51.518;-3.188;2022-09-09T08:29:19;3;2;
60816;PMS5003;51921;51.518;-3.188;2022-09-09T08:31:45;3;3;
60816;PMS5003;51921;51.518;-3.188;2022-09-09T08:34:10;2;2;
60816;PMS5003;51921;51.518;-3.188;2022-09-09T08:36:36;1;1;
60816;PMS5003;51921;51.518;-3.188;2022-09-09T08:39:00;2;2;
60816;PMS5003;51921;51.518;-3.188;2022-09-09T08:41:30;3;3;
60816;PMS5003;51921;51.518;-3.188;2022-09-09T08:43:51;2;2;
60816;PMS5003;51921;51.518;-3.188;2022-09-09T08:46:18;4;3;
60816;PMS5003;51921;51.518;-3.188;2022-09-09T08:48:46;3;3;
60816;PMS5003;51921;51.518;-3.188;2022-09-09T08:51:07;3;3;
60816;PMS5003;51921;51.518;-3.188;2022-09-09T08:53:34;1;1;
60816;PMS5003;51921;51.518;-3.188;2022-09-09T08:55:59;2;2;
60816;PMS5003;51921;51.518;-3.188;2022-09-09T08:58:24;2;2;
60816;PMS5003;51921;51.518;-3.188;2022-09-09T09:00:57;2;1;
60816;PMS5003;51921;51.518;-3.188;2022-09-09T09:03:15;2;2;
60816;PMS5003;51921;51.518;-3.188;2022-09-09T09:05:42;2;2;
60816;PMS5003;51921;51.518;-3.188;2022-09-09T09:08:07;4;2;
60816;PMS5003;51921;51.518;-3.188;2022-09-09T09:10:34;2;2;
60816;PMS5003;51921;51.518;-3.188;2022-09-09T09:12:56;3;2;
60816;PMS5003;51921;51.518;-3.188;2022-09-09T09:15:23;1;1;
60816;PMS5003;51921;51.518;-3.188;2022-09-09T09:17:47;1;1;
60816;PMS5003;51921;51.518;-3.188;2022-09-09T09:20:12;3;2;
60816;PMS5003;51921;51.518;-3.188;2022-09-09T09:22:41;2;2;
60816;PMS5003;51921;51.518;-3.188;2022-09-09T09:25:05;2;2;
60816;PMS5003;51921;51.518;-3.188;2022-09-09T09:27:31;2;2;
60816;PMS5003;51921;51.518;-3.188;2022-09-09T09:29:54;3;3;
60816;PMS5003;51921;51.518;-3.188;2022-09-09T09:32:19;1;1;
60816;PMS5003;51921;51.518;-3.188;2022-09-09T09:34:48;2;1;
60816;PMS5003;51921;51.518;-3.188;2022-09-09T09:37:12;3;3;
60816;PMS5003;51921;51.518;-3.188;2022-09-09T09:39:35;3;3;
60816;PMS5003;51921;51.518;-3.188;2022-09-09T09:44:27;3;3;
60816;PMS5003;51921;51.518;-3.188;2022-09-09T09:46:52;3;3;
60816;PMS5003;51921;51.518;-3.188;2022-09-09T09:49:17;2;2;
60816;PMS5003;51921;51.518;-3.188;2022-09-09T09:51:42;3;3;
60816;PMS5003;51921;51.518;-3.188;2022-09-09T09:54:13;2;2;
60816;PMS5003;51921;51.518;-3.188;2022-09-09T09:56:33;2;2;
60816;PMS5003;51921;51.518;-3.188;2022-09-09T09:58:58;2;2;
60816;PMS5003;51921;51.518;-3.188;2022-09-09T10:01:25;3;3;
60816;PMS5003;51921;51.518;-3.188;2022-09-09T10:03:50;2;2;
60816;PMS5003;51921;51.518;-3.188;2022-09-09T10:06:15;3;3;
60816;PMS5003;51921;51.518;-3.188;2022-09-09T10:08:44;2;2;
60816;PMS5003;51921;51.518;-3.188;2022-09-09T10:11:09;4;3;
60816;PMS5003;51921;51.518;-3.188;2022-09-09T10:13:32;3;3;
60816;PMS5003;51921;51.518;-3.188;2022-09-09T10:16:00;3;3;
60816;PMS5003;51921;51.518;-3.188;2022-09-09T10:18:25;3;3;
60816;PMS5003;51921;51.518;-3.188;2022-09-09T10:20:51;2;2;
60816;PMS5003;51921;51.518;-3.188;2022-09-09T10:23:17;3;3;
60816;PMS5003;51921;51.518;-3.188;2022-09-09T10:25:41;2;1;
60816;PMS5003;51921;51.518;-3.188;2022-09-09T10:28:10;3;3;
60816;PMS5003;51921;51.518;-3.188;2022-09-09T10:30:29;3;3;
60816;PMS5003;51921;51.518;-3.188;2022-09-09T10:32:56;4;4;
60816;PMS5003;51921;51.518;-3.188;2022-09-09T10:35:24;3;3;
60816;PMS5003;51921;51.518;-3.188;2022-09-09T10:37:48;4;3;
60816;PMS5003;51921;51.518;-3.188;2022-09-09T10:40:16;3;3;
60816;PMS5003;51921;51.518;-3.188;2022-09-09T10:42:35;6;6;
60816;PMS5003;51921;51.518;-3.188;2022-09-09T10:45:04;6;6;
60816;PMS5003;51921;51.518;-3.188;2022-09-09T10:47:31;6;6;
60816;PMS5003;51921;51.518;-3.188;2022-09-09T10:49:57;7;6;
60816;PMS5003;51921;51.518;-3.188;2022-09-09T10:52:18;8;8;
60816;PMS5003;51921;51.518;-3.188;2022-09-09T10:54:46;9;9;
60816;PMS5003;51921;51.518;-3.188;2022-09-09T10:57:10;8;8;
60816;PMS5003;51921;51.518;-3.188;2022-09-09T10:59:33;9;9;
60816;PMS5003;51921;51.518;-3.188;2022-09-09T11:01:59;10;10;
60816;PMS5003;51921;51.518;-3.188;2022-09-09T11:04:25;8;8;
60816;PMS5003;51921;51.518;-3.188;2022-09-09T11:06:50;7;7;
60816;PMS5003;51921;51.518;-3.188;2022-09-09T11:09:15;9;9;
60816;PMS5003;51921;51.518;-3.188;2022-09-09T11:11:41;10;10;
60816;PMS5003;51921;51.518;-3.188;2022-09-09T11:14:09;9;8;
60816;PMS5003;51921;51.518;-3.188;2022-09-09T11:16:33;9;8;
60816;PMS5003;51921;51.518;-3.188;2022-09-09T11:18:58;7;5;
60816;PMS5003;51921;51.518;-3.188;2022-09-09T11:21:22;5;5;
60816;PMS5003;51921;51.518;-3.188;2022-09-09T11:23:48;6;6;
60816;PMS5003;51921;51.518;-3.188;2022-09-09T11:26:14;7;6;
60816;PMS5003;51921;51.518;-3.188;2022-09-09T11:28:41;7;6;
60816;PMS5003;51921;51.518;-3.188;2022-09-09T11:31:07;4;4;
60816;PMS5003;51921;51.518;-3.188;2022-09-09T11:33:39;5;5;
60816;PMS5003;51921;51.518;-3.188;2022-09-09T11:35:58;5;5;
60816;PMS5003;51921;51.518;-3.188;2022-09-09T11:38:21;3;3;
60816;PMS5003;51921;51.518;-3.188;2022-09-09T11:40:45;7;5;
60816;PMS5003;51921;51.518;-3.188;2022-09-09T11:43:11;6;6;
60816;PMS5003;51921;51.518;-3.188;2022-09-09T11:45:36;6;6;
60816;PMS5003;51921;51.518;-3.188;2022-09-09T11:48:02;5;5;
60816;PMS5003;51921;51.518;-3.188;2022-09-09T11:50:27;17;16;
60816;PMS5003;51921;51.518;-3.188;2022-09-09T11:53:02;7;6;
60816;PMS5003;51921;51.518;-3.188;2022-09-09T11:57:42;7;6;
60816;PMS5003;51921;51.518;-3.188;2022-09-09T12:02:33;7;7;
60816;PMS5003;51921;51.518;-3.188;2022-09-09T12:04:59;8;7;
60816;PMS5003;51921;51.518;-3.188;2022-09-09T12:07:26;7;7;
60816;PMS5003;51921;51.518;-3.188;2022-09-09T12:09:49;5;5;
60816;PMS5003;51921;51.518;-3.188;2022-09-09T12:12:21;8;8;
60816;PMS5003;51921;51.518;-3.188;2022-09-09T12:14:43;12;11;
60816;PMS5003;51921;51.518;-3.188;2022-09-09T12:17:09;10;10;
60816;PMS5003;51921;51.518;-3.188;2022-09-09T12:19:31;8;8;
60816;PMS5003;51921;51.518;-3.188;2022-09-09T12:21:58;6;6;
60816;PMS5003;51921;51.518;-3.188;2022-09-09T12:24:24;7;6;
60816;PMS5003;51921;51.518;-3.188;2022-09-09T12:26:47;5;5;
60816;PMS5003;51921;51.518;-3.188;2022-09-09T12:29:16;7;7;
60816;PMS5003;51921;51.518;-3.188;2022-09-09T12:31:39;7;6;
60816;PMS5003;51921;51.518;-3.188;2022-09-09T12:34:06;8;6;
60816;PMS5003;51921;51.518;-3.188;2022-09-09T12:36:29;5;5;
60816;PMS5003;51921;51.518;-3.188;2022-09-09T12:38:54;9;8;
60816;PMS5003;51921;51.518;-3.188;2022-09-09T12:41:20;6;6;
60816;PMS5003;51921;51.518;-3.188;2022-09-09T12:43:44;6;6;
60816;PMS5003;51921;51.518;-3.188;2022-09-09T12:46:11;7;6;
60816;PMS5003;51921;51.518;-3.188;2022-09-09T12:48:35;8;8;
60816;PMS5003;51921;51.518;-3.188;2022-09-09T12:51:00;8;8;
60816;PMS5003;51921;51.518;-3.188;2022-09-09T12:53:26;7;6;
60816;PMS5003;51921;51.518;-3.188;2022-09-09T12:55:52;10;10;
60816;PMS5003;51921;51.518;-3.188;2022-09-09T12:58:16;11;11;
60816;PMS5003;51921;51.518;-3.188;2022-09-09T13:05:34;5;5;
60816;PMS5003;51921;51.518;-3.188;2022-09-09T13:08:01;5;5;
60816;PMS5003;51921;51.518;-3.188;2022-09-09T13:10:24;4;4;
60816;PMS5003;51921;51.518;-3.188;2022-09-09T13:12:48;6;5;
60816;PMS5003;51921;51.518;-3.188;2022-09-09T13:15:16;6;5;
60816;PMS5003;51921;51.518;-3.188;2022-09-09T13:17:39;6;6;
60816;PMS5003;51921;51.518;-3.188;2022-09-09T13:20:05;5;4;
60816;PMS5003;51921;51.518;-3.188;2022-09-09T13:22:30;5;5;
60816;PMS5003;51921;51.518;-3.188;2022-09-09T13:24:59;6;6;
60816;PMS5003;51921;51.518;-3.188;2022-09-09T13:27:24;6;6;
60816;PMS5003;51921;51.518;-3.188;2022-09-09T13:29:50;7;7;
60816;PMS5003;51921;51.518;-3.188;2022-09-09T13:32:15;9;9;
60816;PMS5003;51921;51.518;-3.188;2022-09-09T13:34:36;6;6;
60816;PMS5003;51921;51.518;-3.188;2022-09-09T13:37:02;7;7;
60816;PMS5003;51921;51.518;-3.188;2022-09-09T13:39:27;6;5;
60816;PMS5003;51921;51.518;-3.188;2022-09-09T13:41:52;8;7;
60816;PMS5003;51921;51.518;-3.188;2022-09-09T13:44:19;6;6;
60816;PMS5003;51921;51.518;-3.188;2022-09-09T13:46:43;6;5;
60816;PMS5003;51921;51.518;-3.188;2022-09-09T13:51:34;3;3;
60816;PMS5003;51921;51.518;-3.188;2022-09-09T13:53:59;6;6;
60816;PMS5003;51921;51.518;-3.188;2022-09-09T13:56:24;6;5;
60816;PMS5003;51921;51.518;-3.188;2022-09-09T13:58:50;5;5;
60816;PMS5003;51921;51.518;-3.188;2022-09-09T14:01:15;4;4;
60816;PMS5003;51921;51.518;-3.188;2022-09-09T14:03:40;5;5;
60816;PMS5003;51921;51.518;-3.188;2022-09-09T14:06:06;6;6;
60816;PMS5003;51921;51.518;-3.188;2022-09-09T14:08:31;6;6;
60816;PMS5003;51921;51.518;-3.188;2022-09-09T14:10:56;4;4;
60816;PMS5003;51921;51.518;-3.188;2022-09-09T14:13:22;6;6;
60816;PMS5003;51921;51.518;-3.188;2022-09-09T14:15:48;4;4;
60816;PMS5003;51921;51.518;-3.188;2022-09-09T14:18:12;3;2;
60816;PMS5003;51921;51.518;-3.188;2022-09-09T14:20:38;3;3;
60816;PMS5003;51921;51.518;-3.188;2022-09-09T14:23:03;5;4;
60816;PMS5003;51921;51.518;-3.188;2022-09-09T14:25:28;4;4;
60816;PMS5003;51921;51.518;-3.188;2022-09-09T14:27:54;5;5;
60816;PMS5003;51921;51.518;-3.188;2022-09-09T14:30:19;7;7;
60816;PMS5003;51921;51.518;-3.188;2022-09-09T14:32:44;5;5;
60816;PMS5003;51921;51.518;-3.188;2022-09-09T14:35:10;7;6;
60816;PMS5003;51921;51.518;-3.188;2022-09-09T14:37:35;6;6;
60816;PMS5003;51921;51.518;-3.188;2022-09-09T14:40:01;5;5;
60816;PMS5003;51921;51.518;-3.188;2022-09-09T14:42:26;3;3;
60816;PMS5003;51921;51.518;-3.188;2022-09-09T14:44:51;5;4;
60816;PMS5003;51921;51.518;-3.188;2022-09-09T14:47:17;5;4;
60816;PMS5003;51921;51.518;-3.188;2022-09-09T14:49:42;4;3;
60816;PMS5003;51921;51.518;-3.188;2022-09-09T14:52:07;3;3;
60816;PMS5003;51921;51.518;-3.188;2022-09-09T14:54:33;4;4;
60816;PMS5003;51921;51.518;-3.188;2022-09-09T14:56:58;4;3;
60816;PMS5003;51921;51.518;-3.188;2022-09-09T14:59:23;4;3;
60816;PMS5003;51921;51.518;-3.188;2022-09-09T15:01:49;1;1;
60816;PMS5003;51921;51.518;-3.188;2022-09-09T15:04:14;1;1;
60816;PMS5003;51921;51.518;-3.188;2022-09-09T15:06:40;7;3;
60816;PMS5003;51921;51.518;-3.188;2022-09-09T15:09:05;7;7;
60816;PMS5003;51921;51.518;-3.188;2022-09-09T15:11:31;5;4;
60816;PMS5003;51921;51.518;-3.188;2022-09-09T15:13:56;4;4;
60816;PMS5003;51921;51.518;-3.188;2022-09-09T15:16:21;3;3;
60816;PMS5003;51921;51.518;-3.188;2022-09-09T15:18:49;5;5;
60816;PMS5003;51921;51.518;-3.188;2022-09-09T15:21:12;6;5;
60816;PMS5003;51921;51.518;-3.188;2022-09-09T15:23:37;6;6;
60816;PMS5003;51921;51.518;-3.188;2022-09-09T15:26:03;8;7;
60816;PMS5003;51921;51.518;-3.188;2022-09-09T15:28:28;9;9;
60816;PMS5003;51921;51.518;-3.188;2022-09-09T15:30:53;10;8;
60816;PMS5003;51921;51.518;-3.188;2022-09-09T15:33:19;7;7;
60816;PMS5003;51921;51.518;-3.188;2022-09-09T15:35:44;6;6;
60816;PMS5003;51921;51.518;-3.188;2022-09-09T15:38:09;7;7;
60816;PMS5003;51921;51.518;-3.188;2022-09-09T15:40:34;8;7;
60816;PMS5003;51921;51.518;-3.188;2022-09-09T15:43:00;6;6;
60816;PMS5003;51921;51.518;-3.188;2022-09-09T15:45:25;5;5;
60816;PMS5003;51921;51.518;-3.188;2022-09-09T15:47:50;8;8;
60816;PMS5003;51921;51.518;-3.188;2022-09-09T15:50:16;9;9;
60816;PMS5003;51921;51.518;-3.188;2022-09-09T15:52:41;5;5;
60816;PMS5003;51921;51.518;-3.188;2022-09-09T15:55:07;8;8;
60816;PMS5003;51921;51.518;-3.188;2022-09-09T15:57:32;7;7;
60816;PMS5003;51921;51.518;-3.188;2022-09-09T15:59:57;5;5;
60816;PMS5003;51921;51.518;-3.188;2022-09-09T16:02:22;4;4;
60816;PMS5003;51921;51.518;-3.188;2022-09-09T16:04:48;5;4;
60816;PMS5003;51921;51.518;-3.188;2022-09-09T16:07:13;6;4;
60816;PMS5003;51921;51.518;-3.188;2022-09-09T16:09:38;6;6;
60816;PMS5003;51921;51.518;-3.188;2022-09-09T16:12:04;9;8;
60816;PMS5003;51921;51.518;-3.188;2022-09-09T16:14:29;7;7;
60816;PMS5003;51921;51.518;-3.188;2022-09-09T16:16:54;7;6;
60816;PMS5003;51921;51.518;-3.188;2022-09-09T16:19:20;5;4;
60816;PMS5003;51921;51.518;-3.188;2022-09-09T16:21:47;4;4;
60816;PMS5003;51921;51.518;-3.188;2022-09-09T16:24:11;3;3;
60816;PMS5003;51921;51.518;-3.188;2022-09-09T16:26:36;2;2;
60816;PMS5003;51921;51.518;-3.188;2022-09-09T16:29:01;2;1;
60816;PMS5003;51921;51.518;-3.188;2022-09-09T16:31:27;4;4;
60816;PMS5003;51921;51.518;-3.188;2022-09-09T16:33:52;2;2;
60816;PMS5003;51921;51.518;-3.188;2022-09-09T16:36:18;2;2;